sensor_id;sensor_type;location;lat;lon;timestamp;temperature;humidity
20158;DHT22;10239;56.820;24.416;2023-03-23T00:01:13;9.50;99.90
20158;DHT22;10239;56.820;24.416;2023-03-23T00:03:41;9.50;99.90
20158;DHT22;10239;56.820;24.416;2023-03-23T00:06:08;9.50;99.90
20158;DHT22;10239;56.820;24.416;2023-03-23T00:08:37;9.50;99.90
20158;DHT22;10239;56.820;24.416;2023-03-23T00:11:16;9.50;99.90
20158;DHT22;10239;56.820;24.416;2023-03-23T00:13:45;9.50;99.90
20158;DHT22;10239;56.820;24.416;2023-03-23T00:16:13;9.50;99.90
20158;DHT22;10239;56.820;24.416;2023-03-23T00:18:46;9.50;99.90
20158;DHT22;10239;56.820;24.416;2023-03-23T00:21:13;9.50;99.90
20158;DHT22;10239;56.820;24.416;2023-03-23T00:23:40;9.50;99.90
20158;DHT22;10239;56.820;24.416;2023-03-23T00:26:06;9.50;99.90
20158;DHT22;10239;56.820;24.416;2023-03-23T00:28:33;9.40;99.90
20158;DHT22;10239;56.820;24.416;2023-03-23T00:31:05;9.50;99.90
20158;DHT22;10239;56.820;24.416;2023-03-23T00:33:36;9.50;99.90
20158;DHT22;10239;56.820;24.416;2023-03-23T00:36:08;9.50;99.90
20158;DHT22;10239;56.820;24.416;2023-03-23T00:38:35;9.50;99.90
20158;DHT22;10239;56.820;24.416;2023-03-23T00:41:03;9.50;99.90
20158;DHT22;10239;56.820;24.416;2023-03-23T00:43:30;9.50;99.90
20158;DHT22;10239;56.820;24.416;2023-03-23T00:45:58;9.50;99.90
20158;DHT22;10239;56.820;24.416;2023-03-23T00:48:28;9.50;99.90
20158;DHT22;10239;56.820;24.416;2023-03-23T00:50:56;9.50;99.90
20158;DHT22;10239;56.820;24.416;2023-03-23T00:53:22;9.60;99.90
20158;DHT22;10239;56.820;24.416;2023-03-23T00:55:49;9.50;99.90
20158;DHT22;10239;56.820;24.416;2023-03-23T00:58:16;9.40;99.90
20158;DHT22;10239;56.820;24.416;2023-03-23T01:00:43;9.50;99.90
20158;DHT22;10239;56.820;24.416;2023-03-23T01:03:10;9.50;99.90
20158;DHT22;10239;56.820;24.416;2023-03-23T01:05:45;9.60;99.90
20158;DHT22;10239;56.820;24.416;2023-03-23T01:08:14;9.60;99.90
20158;DHT22;10239;56.820;24.416;2023-03-23T01:10:40;9.60;99.90
20158;DHT22;10239;56.820;24.416;2023-03-23T01:13:09;9.60;99.90
20158;DHT22;10239;56.820;24.416;2023-03-23T01:15:36;9.60;99.90
20158;DHT22;10239;56.820;24.416;2023-03-23T01:18:03;9.70;99.90
20158;DHT22;10239;56.820;24.416;2023-03-23T01:20:29;9.70;99.90
20158;DHT22;10239;56.820;24.416;2023-03-23T01:23:00;9.60;99.90
20158;DHT22;10239;56.820;24.416;2023-03-23T01:25:29;9.60;99.90
20158;DHT22;10239;56.820;24.416;2023-03-23T01:27:56;9.70;99.90
20158;DHT22;10239;56.820;24.416;2023-03-23T01:30:24;9.70;99.90
20158;DHT22;10239;56.820;24.416;2023-03-23T01:32:52;9.80;99.90
20158;DHT22;10239;56.820;24.416;2023-03-23T01:35:19;9.70;99.90
20158;DHT22;10239;56.820;24.416;2023-03-23T01:37:46;9.70;99.90
20158;DHT22;10239;56.820;24.416;2023-03-23T01:40:15;9.80;99.90
20158;DHT22;10239;56.820;24.416;2023-03-23T01:42:42;9.80;99.90
20158;DHT22;10239;56.820;24.416;2023-03-23T01:45:27;9.80;99.90
20158;DHT22;10239;56.820;24.416;2023-03-23T01:48:02;9.80;99.90
20158;DHT22;10239;56.820;24.416;2023-03-23T01:50:36;9.80;99.90
20158;DHT22;10239;56.820;24.416;2023-03-23T01:53:06;9.80;99.90
20158;DHT22;10239;56.820;24.416;2023-03-23T01:55:37;9.80;99.90
20158;DHT22;10239;56.820;24.416;2023-03-23T01:58:08;9.80;99.90
20158;DHT22;10239;56.820;24.416;2023-03-23T02:00:36;9.90;99.90
20158;DHT22;10239;56.820;24.416;2023-03-23T02:03:03;9.90;99.90
20158;DHT22;10239;56.820;24.416;2023-03-23T02:05:38;10.00;99.90
20158;DHT22;10239;56.820;24.416;2023-03-23T02:08:14;10.00;99.90
20158;DHT22;10239;56.820;24.416;2023-03-23T02:10:42;10.00;99.90
20158;DHT22;10239;56.820;24.416;2023-03-23T02:13:10;10.00;99.90
20158;DHT22;10239;56.820;24.416;2023-03-23T02:27:14;10.10;99.90
20158;DHT22;10239;56.820;24.416;2023-03-23T02:30:03;10.10;99.90
20158;DHT22;10239;56.820;24.416;2023-03-23T02:35:50;10.00;99.90
20158;DHT22;10239;56.820;24.416;2023-03-23T02:38:32;10.00;99.90
20158;DHT22;10239;56.820;24.416;2023-03-23T02:41:02;10.10;99.90
20158;DHT22;10239;56.820;24.416;2023-03-23T02:43:36;10.10;99.90
20158;DHT22;10239;56.820;24.416;2023-03-23T02:46:06;10.10;99.90
20158;DHT22;10239;56.820;24.416;2023-03-23T02:48:36;10.10;99.90
20158;DHT22;10239;56.820;24.416;2023-03-23T02:51:04;10.10;99.90
20158;DHT22;10239;56.820;24.416;2023-03-23T02:53:34;10.20;99.90
20158;DHT22;10239;56.820;24.416;2023-03-23T02:56:03;10.20;99.90
20158;DHT22;10239;56.820;24.416;2023-03-23T02:58:34;10.20;99.90
20158;DHT22;10239;56.820;24.416;2023-03-23T03:04:11;10.20;99.90
20158;DHT22;10239;56.820;24.416;2023-03-23T03:11:54;10.20;99.90
20158;DHT22;10239;56.820;24.416;2023-03-23T03:14:30;10.20;99.90
20158;DHT22;10239;56.820;24.416;2023-03-23T03:17:16;10.20;99.90
20158;DHT22;10239;56.820;24.416;2023-03-23T03:19:48;10.20;99.90
20158;DHT22;10239;56.820;24.416;2023-03-23T03:22:17;10.10;99.90
20158;DHT22;10239;56.820;24.416;2023-03-23T03:24:47;10.10;99.90
20158;DHT22;10239;56.820;24.416;2023-03-23T03:27:18;10.20;99.90
20158;DHT22;10239;56.820;24.416;2023-03-23T03:29:57;10.20;99.90
20158;DHT22;10239;56.820;24.416;2023-03-23T03:32:34;10.20;99.90
20158;DHT22;10239;56.820;24.416;2023-03-23T03:35:06;10.20;99.90
20158;DHT22;10239;56.820;24.416;2023-03-23T03:37:36;10.20;99.90
20158;DHT22;10239;56.820;24.416;2023-03-23T03:40:10;10.20;99.90
20158;DHT22;10239;56.820;24.416;2023-03-23T03:42:41;10.10;99.90
20158;DHT22;10239;56.820;24.416;2023-03-23T03:45:10;10.10;99.90
20158;DHT22;10239;56.820;24.416;2023-03-23T03:47:38;10.20;99.90
20158;DHT22;10239;56.820;24.416;2023-03-23T03:50:05;10.20;99.90
20158;DHT22;10239;56.820;24.416;2023-03-23T03:52:33;10.30;99.90
20158;DHT22;10239;56.820;24.416;2023-03-23T03:55:00;10.20;99.90
20158;DHT22;10239;56.820;24.416;2023-03-23T03:57:28;10.20;99.90
20158;DHT22;10239;56.820;24.416;2023-03-23T04:00:12;10.20;99.90
20158;DHT22;10239;56.820;24.416;2023-03-23T04:02:50;10.30;99.90
20158;DHT22;10239;56.820;24.416;2023-03-23T04:05:43;10.30;99.90
20158;DHT22;10239;56.820;24.416;2023-03-23T04:08:11;10.40;99.90
20158;DHT22;10239;56.820;24.416;2023-03-23T04:10:38;10.40;99.90
20158;DHT22;10239;56.820;24.416;2023-03-23T04:13:08;10.40;99.90
20158;DHT22;10239;56.820;24.416;2023-03-23T04:15:52;10.40;99.90
20158;DHT22;10239;56.820;24.416;2023-03-23T04:18:19;10.40;99.90
20158;DHT22;10239;56.820;24.416;2023-03-23T04:20:49;10.50;99.90
20158;DHT22;10239;56.820;24.416;2023-03-23T04:23:19;10.50;99.90
20158;DHT22;10239;56.820;24.416;2023-03-23T04:25:50;10.50;99.90
20158;DHT22;10239;56.820;24.416;2023-03-23T04:28:18;10.50;99.90
20158;DHT22;10239;56.820;24.416;2023-03-23T04:31:05;10.50;99.90
20158;DHT22;10239;56.820;24.416;2023-03-23T04:33:31;10.50;99.90
20158;DHT22;10239;56.820;24.416;2023-03-23T04:36:00;10.50;99.90
20158;DHT22;10239;56.820;24.416;2023-03-23T04:38:44;10.60;99.90
20158;DHT22;10239;56.820;24.416;2023-03-23T04:41:18;10.50;99.90
20158;DHT22;10239;56.820;24.416;2023-03-23T04:43:53;10.60;99.90
20158;DHT22;10239;56.820;24.416;2023-03-23T04:46:45;10.50;99.90
20158;DHT22;10239;56.820;24.416;2023-03-23T04:49:17;10.50;99.90
20158;DHT22;10239;56.820;24.416;2023-03-23T04:51:50;10.70;99.90
20158;DHT22;10239;56.820;24.416;2023-03-23T04:54:25;10.70;99.90
20158;DHT22;10239;56.820;24.416;2023-03-23T04:56:58;10.70;99.90
20158;DHT22;10239;56.820;24.416;2023-03-23T04:59:26;10.80;99.90
20158;DHT22;10239;56.820;24.416;2023-03-23T05:02:02;10.80;99.90
20158;DHT22;10239;56.820;24.416;2023-03-23T05:04:29;10.80;99.90
20158;DHT22;10239;56.820;24.416;2023-03-23T05:07:02;10.80;99.90
20158;DHT22;10239;56.820;24.416;2023-03-23T05:09:31;10.80;99.90
20158;DHT22;10239;56.820;24.416;2023-03-23T05:12:07;10.80;99.90
20158;DHT22;10239;56.820;24.416;2023-03-23T05:14:41;10.90;99.90
20158;DHT22;10239;56.820;24.416;2023-03-23T05:17:10;10.80;99.90
20158;DHT22;10239;56.820;24.416;2023-03-23T05:19:36;10.90;99.90
20158;DHT22;10239;56.820;24.416;2023-03-23T05:22:14;10.90;99.90
20158;DHT22;10239;56.820;24.416;2023-03-23T05:24:47;11.00;99.90
20158;DHT22;10239;56.820;24.416;2023-03-23T05:27:14;11.00;99.90
20158;DHT22;10239;56.820;24.416;2023-03-23T05:29:47;11.00;99.90
20158;DHT22;10239;56.820;24.416;2023-03-23T05:32:20;11.10;99.90
20158;DHT22;10239;56.820;24.416;2023-03-23T05:34:47;11.10;99.90
20158;DHT22;10239;56.820;24.416;2023-03-23T05:37:14;11.10;99.90
20158;DHT22;10239;56.820;24.416;2023-03-23T05:39:49;11.20;99.90
20158;DHT22;10239;56.820;24.416;2023-03-23T05:42:38;11.20;99.90
20158;DHT22;10239;56.820;24.416;2023-03-23T05:45:14;11.10;99.90
20158;DHT22;10239;56.820;24.416;2023-03-23T05:47:43;11.20;99.90
20158;DHT22;10239;56.820;24.416;2023-03-23T05:50:15;11.30;99.90
20158;DHT22;10239;56.820;24.416;2023-03-23T05:52:42;11.20;99.90
20158;DHT22;10239;56.820;24.416;2023-03-23T05:55:11;11.30;99.90
20158;DHT22;10239;56.820;24.416;2023-03-23T05:57:41;11.30;99.90
20158;DHT22;10239;56.820;24.416;2023-03-23T06:00:22;11.40;99.90
20158;DHT22;10239;56.820;24.416;2023-03-23T06:02:58;11.60;99.90
20158;DHT22;10239;56.820;24.416;2023-03-23T06:05:43;11.60;99.90
20158;DHT22;10239;56.820;24.416;2023-03-23T06:08:16;11.60;99.90
20158;DHT22;10239;56.820;24.416;2023-03-23T06:10:44;11.60;99.90
20158;DHT22;10239;56.820;24.416;2023-03-23T06:13:12;11.70;99.90
20158;DHT22;10239;56.820;24.416;2023-03-23T06:15:47;11.80;99.90
20158;DHT22;10239;56.820;24.416;2023-03-23T06:18:35;11.80;99.90
20158;DHT22;10239;56.820;24.416;2023-03-23T06:21:12;11.90;99.90
20158;DHT22;10239;56.820;24.416;2023-03-23T06:23:57;12.10;99.90
20158;DHT22;10239;56.820;24.416;2023-03-23T06:26:33;12.20;99.90
20158;DHT22;10239;56.820;24.416;2023-03-23T06:29:03;12.30;99.90
20158;DHT22;10239;56.820;24.416;2023-03-23T06:31:49;12.50;99.90
20158;DHT22;10239;56.820;24.416;2023-03-23T06:34:19;12.60;99.90
20158;DHT22;10239;56.820;24.416;2023-03-23T06:37:04;12.60;99.90
20158;DHT22;10239;56.820;24.416;2023-03-23T06:39:39;12.50;99.90
20158;DHT22;10239;56.820;24.416;2023-03-23T06:42:25;12.30;99.90
20158;DHT22;10239;56.820;24.416;2023-03-23T06:45:12;12.30;99.90
20158;DHT22;10239;56.820;24.416;2023-03-23T06:47:40;12.20;99.90
20158;DHT22;10239;56.820;24.416;2023-03-23T06:50:06;12.20;99.90
20158;DHT22;10239;56.820;24.416;2023-03-23T06:52:35;12.20;99.90
20158;DHT22;10239;56.820;24.416;2023-03-23T06:55:01;12.20;99.90
20158;DHT22;10239;56.820;24.416;2023-03-23T06:57:28;12.10;99.90
20158;DHT22;10239;56.820;24.416;2023-03-23T06:59:55;12.10;99.90
20158;DHT22;10239;56.820;24.416;2023-03-23T07:02:23;12.20;99.90
20158;DHT22;10239;56.820;24.416;2023-03-23T07:04:52;12.30;99.90
20158;DHT22;10239;56.820;24.416;2023-03-23T07:07:22;12.30;99.90
20158;DHT22;10239;56.820;24.416;2023-03-23T07:09:56;12.20;99.90
20158;DHT22;10239;56.820;24.416;2023-03-23T07:12:24;12.30;99.90
20158;DHT22;10239;56.820;24.416;2023-03-23T07:14:51;12.30;99.90
20158;DHT22;10239;56.820;24.416;2023-03-23T07:17:18;12.40;99.90
20158;DHT22;10239;56.820;24.416;2023-03-23T07:20:00;12.30;99.90
20158;DHT22;10239;56.820;24.416;2023-03-23T07:22:28;12.40;99.90
20158;DHT22;10239;56.820;24.416;2023-03-23T07:25:03;12.50;99.90
20158;DHT22;10239;56.820;24.416;2023-03-23T07:27:41;12.60;99.90
20158;DHT22;10239;56.820;24.416;2023-03-23T07:30:10;12.70;99.90
20158;DHT22;10239;56.820;24.416;2023-03-23T07:32:37;12.70;99.90
20158;DHT22;10239;56.820;24.416;2023-03-23T07:35:04;12.70;99.90
20158;DHT22;10239;56.820;24.416;2023-03-23T07:38:09;12.80;99.90
20158;DHT22;10239;56.820;24.416;2023-03-23T07:40:37;12.90;99.90
20158;DHT22;10239;56.820;24.416;2023-03-23T07:43:12;12.90;99.90
20158;DHT22;10239;56.820;24.416;2023-03-23T07:45:59;12.80;99.90
20158;DHT22;10239;56.820;24.416;2023-03-23T07:48:46;12.70;99.90
20158;DHT22;10239;56.820;24.416;2023-03-23T07:51:13;12.70;99.90
20158;DHT22;10239;56.820;24.416;2023-03-23T07:53:44;12.70;99.90
20158;DHT22;10239;56.820;24.416;2023-03-23T07:56:37;12.80;99.90
20158;DHT22;10239;56.820;24.416;2023-03-23T07:59:12;13.00;99.90
20158;DHT22;10239;56.820;24.416;2023-03-23T08:01:40;13.00;99.90
20158;DHT22;10239;56.820;24.416;2023-03-23T08:04:25;13.00;99.90
20158;DHT22;10239;56.820;24.416;2023-03-23T08:07:17;13.00;99.90
20158;DHT22;10239;56.820;24.416;2023-03-23T08:09:52;12.90;99.90
20158;DHT22;10239;56.820;24.416;2023-03-23T08:12:38;12.90;99.90
20158;DHT22;10239;56.820;24.416;2023-03-23T08:15:28;12.90;99.90
20158;DHT22;10239;56.820;24.416;2023-03-23T08:18:27;13.00;99.90
20158;DHT22;10239;56.820;24.416;2023-03-23T08:21:11;13.30;99.90
20158;DHT22;10239;56.820;24.416;2023-03-23T08:23:57;13.70;99.90
20158;DHT22;10239;56.820;24.416;2023-03-23T08:26:42;14.00;99.90
20158;DHT22;10239;56.820;24.416;2023-03-23T08:29:24;14.20;99.90
20158;DHT22;10239;56.820;24.416;2023-03-23T08:32:10;14.20;99.90
20158;DHT22;10239;56.820;24.416;2023-03-23T08:35:10;14.30;99.90
20158;DHT22;10239;56.820;24.416;2023-03-23T08:37:57;14.50;99.90
20158;DHT22;10239;56.820;24.416;2023-03-23T08:41:01;14.50;99.90
20158;DHT22;10239;56.820;24.416;2023-03-23T08:43:36;14.50;99.90
20158;DHT22;10239;56.820;24.416;2023-03-23T08:46:19;14.50;99.90
20158;DHT22;10239;56.820;24.416;2023-03-23T08:49:07;14.60;99.90
20158;DHT22;10239;56.820;24.416;2023-03-23T08:51:52;14.60;99.90
20158;DHT22;10239;56.820;24.416;2023-03-23T08:54:34;14.40;99.90
20158;DHT22;10239;56.820;24.416;2023-03-23T08:57:19;14.50;99.90
20158;DHT22;10239;56.820;24.416;2023-03-23T09:00:07;14.40;99.90
20158;DHT22;10239;56.820;24.416;2023-03-23T09:02:55;14.40;99.90
20158;DHT22;10239;56.820;24.416;2023-03-23T09:05:29;14.60;99.90
20158;DHT22;10239;56.820;24.416;2023-03-23T09:08:19;14.40;99.90
20158;DHT22;10239;56.820;24.416;2023-03-23T09:10:46;14.30;99.90
20158;DHT22;10239;56.820;24.416;2023-03-23T09:13:12;14.50;99.90
20158;DHT22;10239;56.820;24.416;2023-03-23T09:15:39;14.70;99.90
20158;DHT22;10239;56.820;24.416;2023-03-23T09:18:06;14.80;99.90
20158;DHT22;10239;56.820;24.416;2023-03-23T09:20:33;14.80;99.90
20158;DHT22;10239;56.820;24.416;2023-03-23T09:23:00;14.90;99.90
20158;DHT22;10239;56.820;24.416;2023-03-23T09:25:27;14.70;99.90
20158;DHT22;10239;56.820;24.416;2023-03-23T09:27:58;14.60;99.90
20158;DHT22;10239;56.820;24.416;2023-03-23T09:30:27;14.50;99.90
20158;DHT22;10239;56.820;24.416;2023-03-23T09:32:55;14.50;99.90
20158;DHT22;10239;56.820;24.416;2023-03-23T09:35:22;14.40;99.90
20158;DHT22;10239;56.820;24.416;2023-03-23T09:37:50;14.30;99.90
20158;DHT22;10239;56.820;24.416;2023-03-23T09:40:21;14.30;99.90
20158;DHT22;10239;56.820;24.416;2023-03-23T09:42:58;14.30;99.90
20158;DHT22;10239;56.820;24.416;2023-03-23T09:48:37;14.00;99.90
20158;DHT22;10239;56.820;24.416;2023-03-23T09:51:37;13.90;99.90
20158;DHT22;10239;56.820;24.416;2023-03-23T09:54:04;13.80;99.90
20158;DHT22;10239;56.820;24.416;2023-03-23T09:56:33;13.80;99.90
20158;DHT22;10239;56.820;24.416;2023-03-23T09:59:14;13.80;99.90
20158;DHT22;10239;56.820;24.416;2023-03-23T10:01:46;13.70;99.90
20158;DHT22;10239;56.820;24.416;2023-03-23T10:06:53;13.70;99.90
20158;DHT22;10239;56.820;24.416;2023-03-23T10:09:22;13.50;99.90
20158;DHT22;10239;56.820;24.416;2023-03-23T10:12:10;13.50;99.90
20158;DHT22;10239;56.820;24.416;2023-03-23T10:17:18;13.70;99.90
20158;DHT22;10239;56.820;24.416;2023-03-23T10:22:33;13.60;99.90
20158;DHT22;10239;56.820;24.416;2023-03-23T10:25:24;13.50;99.90
20158;DHT22;10239;56.820;24.416;2023-03-23T10:30:40;13.40;99.90
20158;DHT22;10239;56.820;24.416;2023-03-23T10:38:40;13.20;99.90
20158;DHT22;10239;56.820;24.416;2023-03-23T10:41:14;13.10;99.90
20158;DHT22;10239;56.820;24.416;2023-03-23T10:43:42;13.00;99.90
20158;DHT22;10239;56.820;24.416;2023-03-23T10:49:10;13.10;99.90
20158;DHT22;10239;56.820;24.416;2023-03-23T10:51:43;13.10;99.90
20158;DHT22;10239;56.820;24.416;2023-03-23T10:54:10;13.10;99.90
20158;DHT22;10239;56.820;24.416;2023-03-23T10:56:39;13.00;99.90
20158;DHT22;10239;56.820;24.416;2023-03-23T10:59:18;13.00;99.90
20158;DHT22;10239;56.820;24.416;2023-03-23T11:01:50;12.90;99.90
20158;DHT22;10239;56.820;24.416;2023-03-23T11:04:18;12.60;99.90
20158;DHT22;10239;56.820;24.416;2023-03-23T11:06:48;12.70;99.90
20158;DHT22;10239;56.820;24.416;2023-03-23T11:09:18;12.50;99.90
20158;DHT22;10239;56.820;24.416;2023-03-23T11:11:50;12.50;99.90
20158;DHT22;10239;56.820;24.416;2023-03-23T11:14:20;12.40;99.90
20158;DHT22;10239;56.820;24.416;2023-03-23T11:16:53;12.30;99.90
20158;DHT22;10239;56.820;24.416;2023-03-23T11:19:35;12.40;99.90
20158;DHT22;10239;56.820;24.416;2023-03-23T11:22:08;12.30;99.90
20158;DHT22;10239;56.820;24.416;2023-03-23T11:24:45;12.20;99.90
20158;DHT22;10239;56.820;24.416;2023-03-23T11:27:14;12.20;99.90
20158;DHT22;10239;56.820;24.416;2023-03-23T11:32:45;12.00;99.90
20158;DHT22;10239;56.820;24.416;2023-03-23T11:35:18;11.80;99.90
20158;DHT22;10239;56.820;24.416;2023-03-23T11:37:55;11.90;99.90
20158;DHT22;10239;56.820;24.416;2023-03-23T11:40:25;11.80;99.90
20158;DHT22;10239;56.820;24.416;2023-03-23T11:45:22;11.90;99.90
20158;DHT22;10239;56.820;24.416;2023-03-23T11:48:15;11.90;99.90
20158;DHT22;10239;56.820;24.416;2023-03-23T11:50:59;11.90;99.90
20158;DHT22;10239;56.820;24.416;2023-03-23T11:53:33;11.90;99.90
20158;DHT22;10239;56.820;24.416;2023-03-23T11:56:11;12.00;99.90
20158;DHT22;10239;56.820;24.416;2023-03-23T11:58:38;12.00;99.90
20158;DHT22;10239;56.820;24.416;2023-03-23T12:03:59;12.00;99.90
20158;DHT22;10239;56.820;24.416;2023-03-23T12:07:01;12.10;99.90
20158;DHT22;10239;56.820;24.416;2023-03-23T12:18:21;12.00;99.90
20158;DHT22;10239;56.820;24.416;2023-03-23T12:31:40;11.80;99.90
20158;DHT22;10239;56.820;24.416;2023-03-23T12:34:41;11.90;99.90
20158;DHT22;10239;56.820;24.416;2023-03-23T12:39:59;11.80;99.90
20158;DHT22;10239;56.820;24.416;2023-03-23T12:48:23;12.10;99.90
20158;DHT22;10239;56.820;24.416;2023-03-23T12:53:32;12.00;99.90
20158;DHT22;10239;56.820;24.416;2023-03-23T12:56:53;11.80;99.90
20158;DHT22;10239;56.820;24.416;2023-03-23T13:02:21;11.90;99.90
20158;DHT22;10239;56.820;24.416;2023-03-23T13:05:08;11.80;99.90
20158;DHT22;10239;56.820;24.416;2023-03-23T13:07:47;11.80;99.90
20158;DHT22;10239;56.820;24.416;2023-03-23T13:10:22;11.80;99.90
20158;DHT22;10239;56.820;24.416;2023-03-23T13:12:51;11.80;99.90
20158;DHT22;10239;56.820;24.416;2023-03-23T13:23:50;11.50;99.90
20158;DHT22;10239;56.820;24.416;2023-03-23T13:26:20;11.30;99.90
20158;DHT22;10239;56.820;24.416;2023-03-23T13:31:34;11.30;99.90
20158;DHT22;10239;56.820;24.416;2023-03-23T13:34:06;11.30;99.90
20158;DHT22;10239;56.820;24.416;2023-03-23T13:36:43;11.40;99.90
20158;DHT22;10239;56.820;24.416;2023-03-23T13:39:23;11.40;99.90
20158;DHT22;10239;56.820;24.416;2023-03-23T13:47:28;11.30;99.90
20158;DHT22;10239;56.820;24.416;2023-03-23T13:52:54;11.30;99.90
20158;DHT22;10239;56.820;24.416;2023-03-23T13:57:58;11.50;99.90
20158;DHT22;10239;56.820;24.416;2023-03-23T14:00:50;11.60;99.90
20158;DHT22;10239;56.820;24.416;2023-03-23T14:03:41;11.60;99.90
20158;DHT22;10239;56.820;24.416;2023-03-23T14:06:22;11.60;99.90
20158;DHT22;10239;56.820;24.416;2023-03-23T14:09:34;11.50;99.90
20158;DHT22;10239;56.820;24.416;2023-03-23T14:12:14;11.50;99.90
20158;DHT22;10239;56.820;24.416;2023-03-23T14:14:45;11.50;99.90
20158;DHT22;10239;56.820;24.416;2023-03-23T14:19:42;11.50;99.90
20158;DHT22;10239;56.820;24.416;2023-03-23T14:22:42;11.30;99.90
20158;DHT22;10239;56.820;24.416;2023-03-23T14:25:18;11.10;99.90
20158;DHT22;10239;56.820;24.416;2023-03-23T14:27:47;11.10;99.90
20158;DHT22;10239;56.820;24.416;2023-03-23T14:30:19;11.20;99.90
20158;DHT22;10239;56.820;24.416;2023-03-23T14:32:46;11.30;99.90
20158;DHT22;10239;56.820;24.416;2023-03-23T14:35:33;11.30;99.90
20158;DHT22;10239;56.820;24.416;2023-03-23T14:37:59;11.40;99.90
20158;DHT22;10239;56.820;24.416;2023-03-23T14:40:28;11.40;99.90
20158;DHT22;10239;56.820;24.416;2023-03-23T14:42:55;11.40;99.90
20158;DHT22;10239;56.820;24.416;2023-03-23T14:45:24;11.50;99.90
20158;DHT22;10239;56.820;24.416;2023-03-23T14:47:59;11.50;99.90
20158;DHT22;10239;56.820;24.416;2023-03-23T14:53:07;11.50;99.90
20158;DHT22;10239;56.820;24.416;2023-03-23T14:55:35;11.60;99.90
20158;DHT22;10239;56.820;24.416;2023-03-23T14:58:07;11.60;99.90
20158;DHT22;10239;56.820;24.416;2023-03-23T15:00:51;11.60;99.90
20158;DHT22;10239;56.820;24.416;2023-03-23T15:03:18;11.70;99.90
20158;DHT22;10239;56.820;24.416;2023-03-23T15:05:53;11.70;99.90
20158;DHT22;10239;56.820;24.416;2023-03-23T15:08:27;11.70;99.90
20158;DHT22;10239;56.820;24.416;2023-03-23T15:13:34;11.70;99.90
20158;DHT22;10239;56.820;24.416;2023-03-23T15:16:13;11.70;99.90
20158;DHT22;10239;56.820;24.416;2023-03-23T15:19:06;11.70;99.90
20158;DHT22;10239;56.820;24.416;2023-03-23T15:21:33;11.80;99.90
20158;DHT22;10239;56.820;24.416;2023-03-23T15:24:02;11.80;99.90
20158;DHT22;10239;56.820;24.416;2023-03-23T15:26:49;11.80;99.90
20158;DHT22;10239;56.820;24.416;2023-03-23T15:29:19;11.80;99.90
20158;DHT22;10239;56.820;24.416;2023-03-23T15:31:51;11.80;99.90
20158;DHT22;10239;56.820;24.416;2023-03-23T15:34:27;11.80;99.90
20158;DHT22;10239;56.820;24.416;2023-03-23T15:37:01;11.80;99.90
20158;DHT22;10239;56.820;24.416;2023-03-23T15:39:29;11.80;99.90
20158;DHT22;10239;56.820;24.416;2023-03-23T15:41:57;11.70;99.90
20158;DHT22;10239;56.820;24.416;2023-03-23T15:44:32;11.80;99.90
20158;DHT22;10239;56.820;24.416;2023-03-23T15:47:18;11.70;99.90
20158;DHT22;10239;56.820;24.416;2023-03-23T15:49:57;11.70;99.90
20158;DHT22;10239;56.820;24.416;2023-03-23T15:52:25;11.70;99.90
20158;DHT22;10239;56.820;24.416;2023-03-23T15:54:51;11.70;99.90
20158;DHT22;10239;56.820;24.416;2023-03-23T15:57:17;11.60;99.90
20158;DHT22;10239;56.820;24.416;2023-03-23T15:59:44;11.70;99.90
20158;DHT22;10239;56.820;24.416;2023-03-23T16:02:22;11.70;99.90
20158;DHT22;10239;56.820;24.416;2023-03-23T16:04:51;11.70;99.90
20158;DHT22;10239;56.820;24.416;2023-03-23T16:07:22;11.70;99.90
20158;DHT22;10239;56.820;24.416;2023-03-23T16:09:50;11.70;99.90
20158;DHT22;10239;56.820;24.416;2023-03-23T16:12:17;11.70;99.90
20158;DHT22;10239;56.820;24.416;2023-03-23T16:14:45;11.70;99.90
20158;DHT22;10239;56.820;24.416;2023-03-23T16:17:16;11.70;99.90
20158;DHT22;10239;56.820;24.416;2023-03-23T16:19:44;11.70;99.90
20158;DHT22;10239;56.820;24.416;2023-03-23T16:22:12;11.70;99.90
20158;DHT22;10239;56.820;24.416;2023-03-23T16:24:39;11.60;99.90
20158;DHT22;10239;56.820;24.416;2023-03-23T16:27:09;11.60;99.90
20158;DHT22;10239;56.820;24.416;2023-03-23T16:29:37;11.70;99.90
20158;DHT22;10239;56.820;24.416;2023-03-23T16:32:25;11.60;99.90
20158;DHT22;10239;56.820;24.416;2023-03-23T16:34:52;11.60;99.90
20158;DHT22;10239;56.820;24.416;2023-03-23T16:37:20;11.60;99.90
20158;DHT22;10239;56.820;24.416;2023-03-23T16:39:47;11.50;99.90
20158;DHT22;10239;56.820;24.416;2023-03-23T16:42:17;11.40;99.90
20158;DHT22;10239;56.820;24.416;2023-03-23T16:44:45;11.40;99.90
20158;DHT22;10239;56.820;24.416;2023-03-23T16:47:13;11.40;99.90
20158;DHT22;10239;56.820;24.416;2023-03-23T16:49:41;11.40;99.90
20158;DHT22;10239;56.820;24.416;2023-03-23T16:52:09;11.40;99.90
20158;DHT22;10239;56.820;24.416;2023-03-23T16:54:37;11.40;99.90
20158;DHT22;10239;56.820;24.416;2023-03-23T16:57:04;11.40;99.90
20158;DHT22;10239;56.820;24.416;2023-03-23T16:59:34;11.30;99.90
20158;DHT22;10239;56.820;24.416;2023-03-23T17:02:02;11.30;99.90
20158;DHT22;10239;56.820;24.416;2023-03-23T17:04:44;11.30;99.90
20158;DHT22;10239;56.820;24.416;2023-03-23T17:07:15;11.40;99.90
20158;DHT22;10239;56.820;24.416;2023-03-23T17:09:43;11.30;99.90
20158;DHT22;10239;56.820;24.416;2023-03-23T17:12:11;11.30;99.90
20158;DHT22;10239;56.820;24.416;2023-03-23T17:14:38;11.20;99.90
20158;DHT22;10239;56.820;24.416;2023-03-23T17:17:06;11.20;99.90
20158;DHT22;10239;56.820;24.416;2023-03-23T17:19:36;11.20;99.90
20158;DHT22;10239;56.820;24.416;2023-03-23T17:22:04;11.10;99.90
20158;DHT22;10239;56.820;24.416;2023-03-23T17:24:33;11.10;99.90
20158;DHT22;10239;56.820;24.416;2023-03-23T17:27:00;11.10;99.90
20158;DHT22;10239;56.820;24.416;2023-03-23T17:29:29;11.10;99.90
20158;DHT22;10239;56.820;24.416;2023-03-23T17:31:57;11.10;99.90
20158;DHT22;10239;56.820;24.416;2023-03-23T17:34:24;11.10;99.90
20158;DHT22;10239;56.820;24.416;2023-03-23T17:36:52;11.10;99.90
20158;DHT22;10239;56.820;24.416;2023-03-23T17:39:19;11.10;99.90
20158;DHT22;10239;56.820;24.416;2023-03-23T17:41:47;11.10;99.90
20158;DHT22;10239;56.820;24.416;2023-03-23T17:44:15;11.10;99.90
20158;DHT22;10239;56.820;24.416;2023-03-23T17:46:43;11.10;99.90
20158;DHT22;10239;56.820;24.416;2023-03-23T17:49:10;11.10;99.90
20158;DHT22;10239;56.820;24.416;2023-03-23T17:51:38;11.10;99.90
20158;DHT22;10239;56.820;24.416;2023-03-23T17:54:05;11.10;99.90